sensor_id;sensor_type;location;lat;lon;timestamp;P1;durP1;ratioP1;P2;durP2;ratioP2
52186;SDS011;38161;53.020;6.598;2024-01-25T00:01:49;22.33;;;4.47;;
52186;SDS011;38161;53.020;6.598;2024-01-25T00:04:15;22.93;;;5.47;;
52186;SDS011;38161;53.020;6.598;2024-01-25T00:06:41;26.20;;;4.60;;
52186;SDS011;38161;53.020;6.598;2024-01-25T00:09:07;29.58;;;5.05;;
52186;SDS011;38161;53.020;6.598;2024-01-25T00:11:33;23.63;;;4.63;;
52186;SDS011;38161;53.020;6.598;2024-01-25T00:16:27;24.42;;;4.55;;
52186;SDS011;38161;53.020;6.598;2024-01-25T00:18:52;28.17;;;5.47;;
52186;SDS011;38161;53.020;6.598;2024-01-25T00:21:18;24.50;;;4.83;;
52186;SDS011;38161;53.020;6.598;2024-01-25T00:23:44;28.05;;;4.82;;
52186;SDS011;38161;53.020;6.598;2024-01-25T00:26:10;24.87;;;5.00;;
52186;SDS011;38161;53.020;6.598;2024-01-25T00:28:35;32.60;;;5.67;;
52186;SDS011;38161;53.020;6.598;2024-01-25T00:31:01;25.60;;;5.30;;
52186;SDS011;38161;53.020;6.598;2024-01-25T00:33:27;24.90;;;5.53;;
52186;SDS011;38161;53.020;6.598;2024-01-25T00:35:53;25.92;;;4.93;;
52186;SDS011;38161;53.020;6.598;2024-01-25T00:38:19;23.73;;;5.13;;
52186;SDS011;38161;53.020;6.598;2024-01-25T00:40:45;21.17;;;5.00;;
52186;SDS011;38161;53.020;6.598;2024-01-25T00:43:11;27.38;;;5.13;;
52186;SDS011;38161;53.020;6.598;2024-01-25T00:45:37;27.45;;;6.28;;
52186;SDS011;38161;53.020;6.598;2024-01-25T00:48:03;33.05;;;6.00;;
52186;SDS011;38161;53.020;6.598;2024-01-25T00:50:30;19.88;;;5.38;;
52186;SDS011;38161;53.020;6.598;2024-01-25T00:52:56;33.67;;;5.07;;
52186;SDS011;38161;53.020;6.598;2024-01-25T00:55:22;29.42;;;5.30;;
52186;SDS011;38161;53.020;6.598;2024-01-25T00:57:50;20.25;;;4.55;;
52186;SDS011;38161;53.020;6.598;2024-01-25T01:00:17;26.92;;;5.45;;
52186;SDS011;38161;53.020;6.598;2024-01-25T01:05:10;23.90;;;4.28;;
52186;SDS011;38161;53.020;6.598;2024-01-25T01:07:36;29.23;;;4.35;;
52186;SDS011;38161;53.020;6.598;2024-01-25T01:10:02;33.28;;;6.18;;
52186;SDS011;38161;53.020;6.598;2024-01-25T01:12:29;24.08;;;4.68;;
52186;SDS011;38161;53.020;6.598;2024-01-25T01:17:21;22.23;;;5.03;;
52186;SDS011;38161;53.020;6.598;2024-01-25T01:19:47;33.90;;;6.43;;
52186;SDS011;38161;53.020;6.598;2024-01-25T01:22:13;24.83;;;5.53;;
52186;SDS011;38161;53.020;6.598;2024-01-25T01:24:38;26.40;;;5.20;;
52186;SDS011;38161;53.020;6.598;2024-01-25T01:27:04;27.42;;;5.60;;
52186;SDS011;38161;53.020;6.598;2024-01-25T01:29:30;26.90;;;5.40;;
52186;SDS011;38161;53.020;6.598;2024-01-25T01:31:55;27.47;;;5.13;;
52186;SDS011;38161;53.020;6.598;2024-01-25T01:34:21;32.42;;;5.35;;
52186;SDS011;38161;53.020;6.598;2024-01-25T01:36:47;24.47;;;5.67;;
52186;SDS011;38161;53.020;6.598;2024-01-25T01:39:13;23.63;;;5.23;;
52186;SDS011;38161;53.020;6.598;2024-01-25T01:41:38;26.57;;;4.97;;
52186;SDS011;38161;53.020;6.598;2024-01-25T01:44:05;26.83;;;5.43;;
52186;SDS011;38161;53.020;6.598;2024-01-25T01:46:35;36.67;;;5.17;;
52186;SDS011;38161;53.020;6.598;2024-01-25T01:49:11;25.52;;;5.35;;
52186;SDS011;38161;53.020;6.598;2024-01-25T01:51:38;28.08;;;5.75;;
52186;SDS011;38161;53.020;6.598;2024-01-25T01:54:06;23.65;;;4.82;;
52186;SDS011;38161;53.020;6.598;2024-01-25T01:56:33;36.53;;;5.80;;
52186;SDS011;38161;53.020;6.598;2024-01-25T01:58:59;27.80;;;5.80;;
52186;SDS011;38161;53.020;6.598;2024-01-25T02:01:35;26.95;;;5.30;;
52186;SDS011;38161;53.020;6.598;2024-01-25T02:04:01;29.98;;;5.88;;
52186;SDS011;38161;53.020;6.598;2024-01-25T02:06:27;29.67;;;6.60;;
52186;SDS011;38161;53.020;6.598;2024-01-25T02:08:53;33.17;;;6.15;;
52186;SDS011;38161;53.020;6.598;2024-01-25T02:11:25;27.05;;;4.80;;
52186;SDS011;38161;53.020;6.598;2024-01-25T02:13:51;31.33;;;5.85;;
52186;SDS011;38161;53.020;6.598;2024-01-25T02:16:17;22.05;;;5.53;;
52186;SDS011;38161;53.020;6.598;2024-01-25T02:18:44;31.98;;;4.95;;
52186;SDS011;38161;53.020;6.598;2024-01-25T02:21:09;28.13;;;5.17;;
52186;SDS011;38161;53.020;6.598;2024-01-25T02:23:35;34.17;;;5.47;;
52186;SDS011;38161;53.020;6.598;2024-01-25T02:26:01;27.30;;;4.87;;
52186;SDS011;38161;53.020;6.598;2024-01-25T02:28:27;27.88;;;4.65;;
52186;SDS011;38161;53.020;6.598;2024-01-25T02:30:52;31.38;;;6.18;;
52186;SDS011;38161;53.020;6.598;2024-01-25T02:33:18;37.17;;;6.57;;
52186;SDS011;38161;53.020;6.598;2024-01-25T02:35:44;22.87;;;5.23;;
52186;SDS011;38161;53.020;6.598;2024-01-25T02:38:09;30.00;;;6.37;;
52186;SDS011;38161;53.020;6.598;2024-01-25T02:40:35;25.97;;;5.77;;
52186;SDS011;38161;53.020;6.598;2024-01-25T02:43:01;29.27;;;6.38;;
52186;SDS011;38161;53.020;6.598;2024-01-25T02:45:27;37.27;;;7.03;;
52186;SDS011;38161;53.020;6.598;2024-01-25T02:47:53;31.67;;;6.47;;
52186;SDS011;38161;53.020;6.598;2024-01-25T02:50:18;29.83;;;6.60;;
52186;SDS011;38161;53.020;6.598;2024-01-25T02:52:44;37.08;;;7.15;;
52186;SDS011;38161;53.020;6.598;2024-01-25T02:55:10;37.80;;;7.07;;
52186;SDS011;38161;53.020;6.598;2024-01-25T02:57:36;23.67;;;5.60;;
52186;SDS011;38161;53.020;6.598;2024-01-25T03:00:01;29.20;;;6.10;;
52186;SDS011;38161;53.020;6.598;2024-01-25T03:02:28;27.00;;;5.80;;
52186;SDS011;38161;53.020;6.598;2024-01-25T03:04:53;25.93;;;5.37;;
52186;SDS011;38161;53.020;6.598;2024-01-25T03:07:19;31.53;;;5.33;;
52186;SDS011;38161;53.020;6.598;2024-01-25T03:09:45;23.97;;;5.10;;
52186;SDS011;38161;53.020;6.598;2024-01-25T03:12:11;33.47;;;6.05;;
52186;SDS011;38161;53.020;6.598;2024-01-25T03:14:36;32.70;;;6.07;;
52186;SDS011;38161;53.020;6.598;2024-01-25T03:17:02;29.80;;;5.07;;
52186;SDS011;38161;53.020;6.598;2024-01-25T03:19:28;32.33;;;5.75;;
52186;SDS011;38161;53.020;6.598;2024-01-25T03:21:54;23.20;;;5.45;;
52186;SDS011;38161;53.020;6.598;2024-01-25T03:24:23;27.58;;;5.40;;
52186;SDS011;38161;53.020;6.598;2024-01-25T03:26:49;31.60;;;6.03;;
52186;SDS011;38161;53.020;6.598;2024-01-25T03:29:15;35.28;;;5.18;;
52186;SDS011;38161;53.020;6.598;2024-01-25T03:31:41;26.48;;;5.22;;
52186;SDS011;38161;53.020;6.598;2024-01-25T03:34:07;33.83;;;6.95;;
52186;SDS011;38161;53.020;6.598;2024-01-25T03:36:33;28.20;;;5.28;;
52186;SDS011;38161;53.020;6.598;2024-01-25T03:38:58;30.23;;;5.63;;
52186;SDS011;38161;53.020;6.598;2024-01-25T03:41:24;27.33;;;4.80;;
52186;SDS011;38161;53.020;6.598;2024-01-25T03:43:53;29.02;;;5.63;;
52186;SDS011;38161;53.020;6.598;2024-01-25T03:46:19;26.90;;;5.00;;
52186;SDS011;38161;53.020;6.598;2024-01-25T03:48:44;32.83;;;5.53;;
52186;SDS011;38161;53.020;6.598;2024-01-25T03:51:10;28.63;;;5.10;;
52186;SDS011;38161;53.020;6.598;2024-01-25T03:53:36;31.85;;;5.93;;
52186;SDS011;38161;53.020;6.598;2024-01-25T03:56:02;31.33;;;5.43;;
52186;SDS011;38161;53.020;6.598;2024-01-25T03:58:28;27.38;;;5.30;;
52186;SDS011;38161;53.020;6.598;2024-01-25T04:00:54;36.15;;;5.25;;
52186;SDS011;38161;53.020;6.598;2024-01-25T04:03:19;30.17;;;5.15;;
52186;SDS011;38161;53.020;6.598;2024-01-25T04:05:48;30.13;;;6.13;;
52186;SDS011;38161;53.020;6.598;2024-01-25T04:08:14;36.20;;;6.93;;
52186;SDS011;38161;53.020;6.598;2024-01-25T04:10:39;29.40;;;5.27;;
52186;SDS011;38161;53.020;6.598;2024-01-25T04:13:05;37.00;;;6.20;;
52186;SDS011;38161;53.020;6.598;2024-01-25T04:15:32;29.20;;;5.75;;
52186;SDS011;38161;53.020;6.598;2024-01-25T04:17:58;23.27;;;5.15;;
52186;SDS011;38161;53.020;6.598;2024-01-25T04:20:24;30.37;;;6.63;;
52186;SDS011;38161;53.020;6.598;2024-01-25T04:22:49;36.13;;;6.63;;
52186;SDS011;38161;53.020;6.598;2024-01-25T04:25:15;31.50;;;6.20;;
52186;SDS011;38161;53.020;6.598;2024-01-25T04:27:41;28.50;;;5.77;;
52186;SDS011;38161;53.020;6.598;2024-01-25T04:30:07;29.10;;;6.70;;
52186;SDS011;38161;53.020;6.598;2024-01-25T04:34:59;28.80;;;5.88;;
52186;SDS011;38161;53.020;6.598;2024-01-25T04:37:25;25.33;;;5.87;;
52186;SDS011;38161;53.020;6.598;2024-01-25T04:39:51;32.75;;;6.30;;
52186;SDS011;38161;53.020;6.598;2024-01-25T04:42:17;32.50;;;5.03;;
52186;SDS011;38161;53.020;6.598;2024-01-25T04:44:43;28.63;;;4.97;;
52186;SDS011;38161;53.020;6.598;2024-01-25T04:47:09;24.83;;;4.70;;
52186;SDS011;38161;53.020;6.598;2024-01-25T04:49:35;27.30;;;5.68;;
52186;SDS011;38161;53.020;6.598;2024-01-25T04:52:01;23.00;;;5.22;;
52186;SDS011;38161;53.020;6.598;2024-01-25T04:54:27;21.95;;;4.88;;
52186;SDS011;38161;53.020;6.598;2024-01-25T04:56:55;26.92;;;5.53;;
52186;SDS011;38161;53.020;6.598;2024-01-25T04:59:21;29.47;;;6.20;;
52186;SDS011;38161;53.020;6.598;2024-01-25T05:01:46;37.50;;;6.38;;
52186;SDS011;38161;53.020;6.598;2024-01-25T05:04:12;26.63;;;5.60;;
52186;SDS011;38161;53.020;6.598;2024-01-25T05:06:38;26.63;;;6.33;;
52186;SDS011;38161;53.020;6.598;2024-01-25T05:09:04;31.37;;;6.00;;
52186;SDS011;38161;53.020;6.598;2024-01-25T05:11:30;28.88;;;5.70;;
52186;SDS011;38161;53.020;6.598;2024-01-25T05:13:55;38.15;;;5.35;;
52186;SDS011;38161;53.020;6.598;2024-01-25T05:16:21;33.87;;;5.17;;
52186;SDS011;38161;53.020;6.598;2024-01-25T05:18:47;28.80;;;6.03;;
52186;SDS011;38161;53.020;6.598;2024-01-25T05:21:12;38.30;;;6.13;;
52186;SDS011;38161;53.020;6.598;2024-01-25T05:23:38;24.93;;;4.60;;
52186;SDS011;38161;53.020;6.598;2024-01-25T05:26:05;37.53;;;5.53;;
52186;SDS011;38161;53.020;6.598;2024-01-25T05:28:31;30.73;;;5.88;;
52186;SDS011;38161;53.020;6.598;2024-01-25T05:30:57;30.20;;;5.43;;
52186;SDS011;38161;53.020;6.598;2024-01-25T05:33:23;28.73;;;5.50;;
52186;SDS011;38161;53.020;6.598;2024-01-25T05:35:49;34.03;;;5.90;;
52186;SDS011;38161;53.020;6.598;2024-01-25T05:38:15;25.67;;;4.72;;
52186;SDS011;38161;53.020;6.598;2024-01-25T05:40:41;29.73;;;5.28;;
52186;SDS011;38161;53.020;6.598;2024-01-25T05:43:07;25.03;;;5.87;;
52186;SDS011;38161;53.020;6.598;2024-01-25T05:45:33;37.30;;;6.03;;
52186;SDS011;38161;53.020;6.598;2024-01-25T05:47:58;29.35;;;5.55;;
52186;SDS011;38161;53.020;6.598;2024-01-25T05:50:24;31.23;;;6.27;;
52186;SDS011;38161;53.020;6.598;2024-01-25T05:52:50;29.60;;;4.87;;
52186;SDS011;38161;53.020;6.598;2024-01-25T05:55:16;21.80;;;4.87;;
52186;SDS011;38161;53.020;6.598;2024-01-25T05:57:42;33.58;;;6.18;;
52186;SDS011;38161;53.020;6.598;2024-01-25T06:00:09;26.00;;;5.40;;
52186;SDS011;38161;53.020;6.598;2024-01-25T06:02:38;27.55;;;5.63;;
52186;SDS011;38161;53.020;6.598;2024-01-25T06:05:04;29.63;;;5.78;;
52186;SDS011;38161;53.020;6.598;2024-01-25T06:07:30;26.70;;;6.07;;
52186;SDS011;38161;53.020;6.598;2024-01-25T06:09:55;19.97;;;5.13;;
52186;SDS011;38161;53.020;6.598;2024-01-25T06:12:21;25.67;;;5.53;;
52186;SDS011;38161;53.020;6.598;2024-01-25T06:14:47;29.35;;;5.55;;
52186;SDS011;38161;53.020;6.598;2024-01-25T06:17:13;29.98;;;5.68;;
52186;SDS011;38161;53.020;6.598;2024-01-25T06:19:39;25.90;;;4.75;;
52186;SDS011;38161;53.020;6.598;2024-01-25T06:22:05;29.50;;;6.17;;
52186;SDS011;38161;53.020;6.598;2024-01-25T06:24:31;34.90;;;5.57;;
52186;SDS011;38161;53.020;6.598;2024-01-25T06:26:57;29.52;;;5.60;;
52186;SDS011;38161;53.020;6.598;2024-01-25T06:29:23;31.63;;;5.27;;
52186;SDS011;38161;53.020;6.598;2024-01-25T06:31:48;31.20;;;6.43;;
52186;SDS011;38161;53.020;6.598;2024-01-25T06:34:14;26.90;;;5.40;;
52186;SDS011;38161;53.020;6.598;2024-01-25T06:36:40;35.70;;;5.90;;
52186;SDS011;38161;53.020;6.598;2024-01-25T06:39:05;42.30;;;6.13;;
52186;SDS011;38161;53.020;6.598;2024-01-25T06:41:31;21.67;;;4.77;;
52186;SDS011;38161;53.020;6.598;2024-01-25T06:43:58;42.53;;;6.82;;
52186;SDS011;38161;53.020;6.598;2024-01-25T06:46:25;30.50;;;5.57;;
52186;SDS011;38161;53.020;6.598;2024-01-25T06:48:51;36.90;;;8.13;;
52186;SDS011;38161;53.020;6.598;2024-01-25T06:51:17;34.10;;;5.63;;
52186;SDS011;38161;53.020;6.598;2024-01-25T06:53:42;30.20;;;5.93;;
52186;SDS011;38161;53.020;6.598;2024-01-25T06:56:08;34.65;;;5.85;;
52186;SDS011;38161;53.020;6.598;2024-01-25T06:58:34;41.15;;;6.07;;
52186;SDS011;38161;53.020;6.598;2024-01-25T07:01:00;32.17;;;6.20;;
52186;SDS011;38161;53.020;6.598;2024-01-25T07:03:26;38.20;;;5.88;;
52186;SDS011;38161;53.020;6.598;2024-01-25T07:05:51;27.83;;;4.97;;
52186;SDS011;38161;53.020;6.598;2024-01-25T07:08:17;26.53;;;4.90;;
52186;SDS011;38161;53.020;6.598;2024-01-25T07:10:44;23.73;;;4.70;;
52186;SDS011;38161;53.020;6.598;2024-01-25T07:13:10;28.80;;;5.15;;
52186;SDS011;38161;53.020;6.598;2024-01-25T07:15:36;29.93;;;5.93;;
52186;SDS011;38161;53.020;6.598;2024-01-25T07:18:02;27.52;;;6.20;;
52186;SDS011;38161;53.020;6.598;2024-01-25T07:20:28;37.50;;;6.75;;
52186;SDS011;38161;53.020;6.598;2024-01-25T07:22:54;29.60;;;6.40;;
52186;SDS011;38161;53.020;6.598;2024-01-25T07:25:20;27.83;;;5.60;;
52186;SDS011;38161;53.020;6.598;2024-01-25T07:27:46;22.83;;;5.25;;
52186;SDS011;38161;53.020;6.598;2024-01-25T07:32:38;28.13;;;7.00;;
52186;SDS011;38161;53.020;6.598;2024-01-25T07:35:07;28.88;;;5.78;;
52186;SDS011;38161;53.020;6.598;2024-01-25T07:37:35;32.47;;;7.40;;
52186;SDS011;38161;53.020;6.598;2024-01-25T07:40:01;27.08;;;5.20;;
52186;SDS011;38161;53.020;6.598;2024-01-25T07:42:28;29.77;;;5.65;;
52186;SDS011;38161;53.020;6.598;2024-01-25T07:44:54;37.15;;;5.70;;
52186;SDS011;38161;53.020;6.598;2024-01-25T07:47:20;27.65;;;5.53;;
52186;SDS011;38161;53.020;6.598;2024-01-25T07:49:46;33.07;;;5.93;;
52186;SDS011;38161;53.020;6.598;2024-01-25T07:52:13;24.92;;;4.93;;
52186;SDS011;38161;53.020;6.598;2024-01-25T07:54:39;31.60;;;6.38;;
52186;SDS011;38161;53.020;6.598;2024-01-25T07:57:05;40.50;;;13.20;;
52186;SDS011;38161;53.020;6.598;2024-01-25T07:59:31;50.17;;;17.15;;
52186;SDS011;38161;53.020;6.598;2024-01-25T08:01:57;39.40;;;12.03;;
52186;SDS011;38161;53.020;6.598;2024-01-25T08:04:22;37.07;;;12.47;;
52186;SDS011;38161;53.020;6.598;2024-01-25T08:06:48;33.63;;;10.83;;
52186;SDS011;38161;53.020;6.598;2024-01-25T08:09:14;43.23;;;11.50;;
52186;SDS011;38161;53.020;6.598;2024-01-25T08:11:41;50.55;;;18.45;;
52186;SDS011;38161;53.020;6.598;2024-01-25T08:14:07;41.17;;;11.60;;
52186;SDS011;38161;53.020;6.598;2024-01-25T08:16:33;48.93;;;8.97;;
52186;SDS011;38161;53.020;6.598;2024-01-25T08:19:00;43.60;;;8.20;;
52186;SDS011;38161;53.020;6.598;2024-01-25T08:21:26;26.58;;;7.43;;
52186;SDS011;38161;53.020;6.598;2024-01-25T08:23:51;36.50;;;8.07;;
52186;SDS011;38161;53.020;6.598;2024-01-25T08:26:17;42.47;;;8.87;;
52186;SDS011;38161;53.020;6.598;2024-01-25T08:28:43;34.10;;;7.10;;
52186;SDS011;38161;53.020;6.598;2024-01-25T08:31:09;43.20;;;8.15;;
52186;SDS011;38161;53.020;6.598;2024-01-25T08:33:35;25.50;;;6.00;;
52186;SDS011;38161;53.020;6.598;2024-01-25T08:36:02;39.83;;;7.15;;
52186;SDS011;38161;53.020;6.598;2024-01-25T08:38:28;37.55;;;7.75;;
52186;SDS011;38161;53.020;6.598;2024-01-25T08:40:54;36.72;;;8.63;;
52186;SDS011;38161;53.020;6.598;2024-01-25T08:43:20;36.73;;;8.63;;
52186;SDS011;38161;53.020;6.598;2024-01-25T08:45:45;39.70;;;8.00;;
52186;SDS011;38161;53.020;6.598;2024-01-25T08:48:11;34.85;;;7.50;;
52186;SDS011;38161;53.020;6.598;2024-01-25T08:50:38;37.28;;;7.00;;
52186;SDS011;38161;53.020;6.598;2024-01-25T08:53:04;35.67;;;7.38;;
52186;SDS011;38161;53.020;6.598;2024-01-25T08:55:30;40.72;;;7.80;;
52186;SDS011;38161;53.020;6.598;2024-01-25T08:57:56;35.40;;;7.78;;
52186;SDS011;38161;53.020;6.598;2024-01-25T09:00:22;33.23;;;6.70;;
52186;SDS011;38161;53.020;6.598;2024-01-25T09:02:48;29.10;;;5.97;;
52186;SDS011;38161;53.020;6.598;2024-01-25T09:05:14;36.60;;;6.07;;
52186;SDS011;38161;53.020;6.598;2024-01-25T09:07:40;42.45;;;7.53;;
52186;SDS011;38161;53.020;6.598;2024-01-25T09:10:07;33.05;;;7.25;;
52186;SDS011;38161;53.020;6.598;2024-01-25T09:12:36;32.38;;;7.50;;
52186;SDS011;38161;53.020;6.598;2024-01-25T09:15:04;34.42;;;6.55;;
52186;SDS011;38161;53.020;6.598;2024-01-25T09:17:30;28.10;;;7.32;;
52186;SDS011;38161;53.020;6.598;2024-01-25T09:19:56;44.70;;;7.60;;
52186;SDS011;38161;53.020;6.598;2024-01-25T09:22:24;38.50;;;7.32;;
52186;SDS011;38161;53.020;6.598;2024-01-25T09:24:49;28.47;;;6.60;;
52186;SDS011;38161;53.020;6.598;2024-01-25T09:27:18;45.88;;;8.30;;
52186;SDS011;38161;53.020;6.598;2024-01-25T09:29:44;32.22;;;6.50;;
52186;SDS011;38161;53.020;6.598;2024-01-25T09:32:10;35.95;;;7.43;;
52186;SDS011;38161;53.020;6.598;2024-01-25T09:34:38;35.37;;;6.07;;
52186;SDS011;38161;53.020;6.598;2024-01-25T09:37:04;33.58;;;6.53;;
52186;SDS011;38161;53.020;6.598;2024-01-25T09:39:33;26.70;;;5.95;;
52186;SDS011;38161;53.020;6.598;2024-01-25T09:42:00;31.35;;;6.82;;
52186;SDS011;38161;53.020;6.598;2024-01-25T09:44:28;31.75;;;6.75;;
52186;SDS011;38161;53.020;6.598;2024-01-25T09:46:54;41.78;;;7.22;;
52186;SDS011;38161;53.020;6.598;2024-01-25T09:49:20;38.97;;;6.65;;
52186;SDS011;38161;53.020;6.598;2024-01-25T09:51:46;32.78;;;6.25;;
52186;SDS011;38161;53.020;6.598;2024-01-25T09:54:15;33.72;;;6.78;;
52186;SDS011;38161;53.020;6.598;2024-01-25T09:56:42;33.03;;;7.20;;
52186;SDS011;38161;53.020;6.598;2024-01-25T09:59:08;43.53;;;7.13;;
52186;SDS011;38161;53.020;6.598;2024-01-25T10:01:34;35.88;;;6.43;;
52186;SDS011;38161;53.020;6.598;2024-01-25T10:04:00;37.23;;;7.10;;
52186;SDS011;38161;53.020;6.598;2024-01-25T10:06:26;39.00;;;7.10;;
52186;SDS011;38161;53.020;6.598;2024-01-25T10:08:54;34.67;;;7.50;;
52186;SDS011;38161;53.020;6.598;2024-01-25T10:11:21;44.53;;;9.43;;
52186;SDS011;38161;53.020;6.598;2024-01-25T10:13:48;41.83;;;16.30;;
52186;SDS011;38161;53.020;6.598;2024-01-25T10:16:19;57.85;;;15.05;;
52186;SDS011;38161;53.020;6.598;2024-01-25T10:18:47;40.55;;;14.25;;
52186;SDS011;38161;53.020;6.598;2024-01-25T10:21:14;57.42;;;18.30;;
52186;SDS011;38161;53.020;6.598;2024-01-25T10:23:41;40.08;;;13.25;;
52186;SDS011;38161;53.020;6.598;2024-01-25T10:26:08;39.03;;;11.82;;
52186;SDS011;38161;53.020;6.598;2024-01-25T10:28:35;54.38;;;12.75;;
52186;SDS011;38161;53.020;6.598;2024-01-25T10:31:01;43.10;;;11.02;;
52186;SDS011;38161;53.020;6.598;2024-01-25T10:33:29;51.15;;;12.68;;
52186;SDS011;38161;53.020;6.598;2024-01-25T10:35:56;42.55;;;12.10;;
52186;SDS011;38161;53.020;6.598;2024-01-25T10:38:30;53.17;;;18.02;;
52186;SDS011;38161;53.020;6.598;2024-01-25T10:40:59;40.35;;;12.18;;
52186;SDS011;38161;53.020;6.598;2024-01-25T10:43:26;51.67;;;16.15;;
52186;SDS011;38161;53.020;6.598;2024-01-25T10:45:52;41.67;;;13.13;;
52186;SDS011;38161;53.020;6.598;2024-01-25T10:48:21;43.85;;;10.38;;
52186;SDS011;38161;53.020;6.598;2024-01-25T10:50:47;36.00;;;10.13;;
52186;SDS011;38161;53.020;6.598;2024-01-25T10:53:14;32.35;;;9.07;;
52186;SDS011;38161;53.020;6.598;2024-01-25T10:55:42;36.05;;;8.38;;
52186;SDS011;38161;53.020;6.598;2024-01-25T10:58:08;32.25;;;7.53;;
52186;SDS011;38161;53.020;6.598;2024-01-25T11:00:34;40.72;;;7.80;;
52186;SDS011;38161;53.020;6.598;2024-01-25T11:03:00;36.75;;;7.85;;
52186;SDS011;38161;53.020;6.598;2024-01-25T11:05:27;36.90;;;10.40;;
52186;SDS011;38161;53.020;6.598;2024-01-25T11:07:56;31.17;;;9.00;;
52186;SDS011;38161;53.020;6.598;2024-01-25T11:10:26;32.30;;;7.57;;
52186;SDS011;38161;53.020;6.598;2024-01-25T11:12:59;33.75;;;8.68;;
52186;SDS011;38161;53.020;6.598;2024-01-25T11:15:33;35.50;;;7.85;;
52186;SDS011;38161;53.020;6.598;2024-01-25T11:18:04;34.03;;;11.73;;
52186;SDS011;38161;53.020;6.598;2024-01-25T11:20:35;29.23;;;11.15;;
52186;SDS011;38161;53.020;6.598;2024-01-25T11:23:02;41.42;;;12.32;;
52186;SDS011;38161;53.020;6.598;2024-01-25T11:25:32;35.60;;;10.25;;
52186;SDS011;38161;53.020;6.598;2024-01-25T11:28:00;39.33;;;13.05;;
52186;SDS011;38161;53.020;6.598;2024-01-25T11:30:28;26.70;;;8.18;;
52186;SDS011;38161;53.020;6.598;2024-01-25T11:32:55;26.63;;;8.38;;
52186;SDS011;38161;53.020;6.598;2024-01-25T11:35:21;29.02;;;7.97;;
52186;SDS011;38161;53.020;6.598;2024-01-25T11:37:47;28.00;;;8.40;;
52186;SDS011;38161;53.020;6.598;2024-01-25T11:40:15;34.10;;;8.38;;
52186;SDS011;38161;53.020;6.598;2024-01-25T11:45:09;26.60;;;7.95;;
52186;SDS011;38161;53.020;6.598;2024-01-25T11:47:36;29.13;;;7.82;;
52186;SDS011;38161;53.020;6.598;2024-01-25T11:50:03;32.33;;;8.20;;
52186;SDS011;38161;53.020;6.598;2024-01-25T11:52:30;32.67;;;8.15;;
52186;SDS011;38161;53.020;6.598;2024-01-25T11:54:58;30.65;;;8.45;;
52186;SDS011;38161;53.020;6.598;2024-01-25T11:57:26;30.25;;;8.93;;
52186;SDS011;38161;53.020;6.598;2024-01-25T11:59:52;40.22;;;9.52;;
52186;SDS011;38161;53.020;6.598;2024-01-25T12:02:20;28.10;;;7.72;;
52186;SDS011;38161;53.020;6.598;2024-01-25T12:04:46;22.30;;;7.95;;
52186;SDS011;38161;53.020;6.598;2024-01-25T12:07:12;32.80;;;8.52;;
52186;SDS011;38161;53.020;6.598;2024-01-25T12:09:39;37.30;;;7.65;;
52186;SDS011;38161;53.020;6.598;2024-01-25T12:12:05;30.98;;;7.22;;
52186;SDS011;38161;53.020;6.598;2024-01-25T12:14:31;29.02;;;6.65;;
52186;SDS011;38161;53.020;6.598;2024-01-25T12:17:00;28.00;;;6.93;;
52186;SDS011;38161;53.020;6.598;2024-01-25T12:19:29;30.67;;;8.05;;
52186;SDS011;38161;53.020;6.598;2024-01-25T12:21:55;37.45;;;7.30;;
52186;SDS011;38161;53.020;6.598;2024-01-25T12:24:21;26.58;;;7.22;;
52186;SDS011;38161;53.020;6.598;2024-01-25T12:26:47;29.80;;;6.70;;
52186;SDS011;38161;53.020;6.598;2024-01-25T12:29:13;30.95;;;7.60;;
52186;SDS011;38161;53.020;6.598;2024-01-25T12:31:39;28.70;;;6.37;;
52186;SDS011;38161;53.020;6.598;2024-01-25T12:34:10;25.55;;;6.47;;
52186;SDS011;38161;53.020;6.598;2024-01-25T12:36:40;36.45;;;7.28;;
52186;SDS011;38161;53.020;6.598;2024-01-25T12:39:05;24.07;;;6.37;;
52186;SDS011;38161;53.020;6.598;2024-01-25T12:41:32;27.70;;;6.22;;
52186;SDS011;38161;53.020;6.598;2024-01-25T12:43:58;28.90;;;6.75;;
52186;SDS011;38161;53.020;6.598;2024-01-25T12:46:24;24.52;;;6.43;;
52186;SDS011;38161;53.020;6.598;2024-01-25T12:48:50;27.55;;;7.03;;
52186;SDS011;38161;53.020;6.598;2024-01-25T12:51:20;26.77;;;6.50;;
52186;SDS011;38161;53.020;6.598;2024-01-25T12:53:47;25.23;;;6.05;;
52186;SDS011;38161;53.020;6.598;2024-01-25T12:56:14;27.90;;;6.00;;
52186;SDS011;38161;53.020;6.598;2024-01-25T12:58:40;22.23;;;5.43;;
52186;SDS011;38161;53.020;6.598;2024-01-25T13:01:06;21.45;;;5.70;;
52186;SDS011;38161;53.020;6.598;2024-01-25T13:03:31;30.60;;;6.32;;
52186;SDS011;38161;53.020;6.598;2024-01-25T13:05:58;35.03;;;6.57;;
52186;SDS011;38161;53.020;6.598;2024-01-25T13:08:23;33.00;;;10.90;;
52186;SDS011;38161;53.020;6.598;2024-01-25T13:10:49;34.73;;;9.00;;
52186;SDS011;38161;53.020;6.598;2024-01-25T13:13:15;38.58;;;14.45;;
52186;SDS011;38161;53.020;6.598;2024-01-25T13:15:41;46.57;;;17.70;;
52186;SDS011;38161;53.020;6.598;2024-01-25T13:18:06;31.90;;;8.18;;
52186;SDS011;38161;53.020;6.598;2024-01-25T13:20:32;25.15;;;7.10;;
52186;SDS011;38161;53.020;6.598;2024-01-25T13:22:58;25.77;;;7.15;;
52186;SDS011;38161;53.020;6.598;2024-01-25T13:25:24;33.20;;;11.15;;
52186;SDS011;38161;53.020;6.598;2024-01-25T13:27:50;53.33;;;18.65;;
52186;SDS011;38161;53.020;6.598;2024-01-25T13:30:16;32.92;;;8.15;;
52186;SDS011;38161;53.020;6.598;2024-01-25T13:32:42;57.38;;;18.48;;
52186;SDS011;38161;53.020;6.598;2024-01-25T13:35:08;83.93;;;29.95;;
52186;SDS011;38161;53.020;6.598;2024-01-25T13:37:34;43.47;;;9.68;;
52186;SDS011;38161;53.020;6.598;2024-01-25T13:40:00;29.55;;;9.18;;
52186;SDS011;38161;53.020;6.598;2024-01-25T13:42:29;30.85;;;7.25;;
52186;SDS011;38161;53.020;6.598;2024-01-25T13:44:55;53.10;;;17.77;;
52186;SDS011;38161;53.020;6.598;2024-01-25T13:47:21;30.00;;;7.13;;
52186;SDS011;38161;53.020;6.598;2024-01-25T13:49:47;33.00;;;10.52;;
52186;SDS011;38161;53.020;6.598;2024-01-25T13:52:17;25.95;;;8.13;;
52186;SDS011;38161;53.020;6.598;2024-01-25T13:54:44;29.33;;;7.63;;
52186;SDS011;38161;53.020;6.598;2024-01-25T13:57:11;26.55;;;6.30;;
52186;SDS011;38161;53.020;6.598;2024-01-25T13:59:38;27.23;;;8.02;;
52186;SDS011;38161;53.020;6.598;2024-01-25T14:02:04;24.40;;;6.35;;
52186;SDS011;38161;53.020;6.598;2024-01-25T14:04:30;26.27;;;7.03;;
52186;SDS011;38161;53.020;6.598;2024-01-25T14:06:56;30.73;;;7.45;;
52186;SDS011;38161;53.020;6.598;2024-01-25T14:09:22;26.70;;;8.15;;
52186;SDS011;38161;53.020;6.598;2024-01-25T14:11:48;36.40;;;8.23;;
52186;SDS011;38161;53.020;6.598;2024-01-25T14:14:13;32.07;;;7.80;;
52186;SDS011;38161;53.020;6.598;2024-01-25T14:16:39;32.50;;;8.25;;
52186;SDS011;38161;53.020;6.598;2024-01-25T14:19:05;32.35;;;8.05;;
52186;SDS011;38161;53.020;6.598;2024-01-25T14:21:31;28.63;;;7.32;;
52186;SDS011;38161;53.020;6.598;2024-01-25T14:23:57;30.40;;;7.68;;
52186;SDS011;38161;53.020;6.598;2024-01-25T14:26:23;35.28;;;10.30;;
52186;SDS011;38161;53.020;6.598;2024-01-25T14:28:49;32.00;;;8.77;;
52186;SDS011;38161;53.020;6.598;2024-01-25T14:31:15;35.35;;;7.88;;
52186;SDS011;38161;53.020;6.598;2024-01-25T14:33:41;31.05;;;7.78;;
52186;SDS011;38161;53.020;6.598;2024-01-25T14:36:07;30.67;;;7.28;;
52186;SDS011;38161;53.020;6.598;2024-01-25T14:38:32;30.30;;;7.10;;
52186;SDS011;38161;53.020;6.598;2024-01-25T14:40:59;22.80;;;6.70;;
52186;SDS011;38161;53.020;6.598;2024-01-25T14:43:25;29.08;;;6.90;;